Time;durP1;ratioP1;P1;durP2;ratioP2;P2;SDS_P1;SDS_P2;PMS_P1;PMS_P2;Temp;Humidity;BMP_temperature;BMP_pressure;BME280_temperature;BME280_humidity;BME280_pressure;Samples;Min_cycle;Max_cycle;Signal;HPM_P1;HPM_P2
2023/09/17 00:00:44;;;;;;;10.07;4.90;;;17.90;99.90;;;18.84;100.00;97956.34;5038604;28;20461;-78
2023/09/17 00:03:14;;;;;;;8.27;5.80;;;17.90;99.90;;;18.80;100.00;97970.31;5040810;28;20486;-78
2023/09/17 00:05:45;;;;;;;8.00;5.20;;;18.00;99.90;;;18.81;100.00;97962.09;5043709;28;20460;-79
2023/09/17 00:08:15;;;;;;;7.10;5.37;;;18.00;99.90;;;18.87;100.00;97949.75;5038425;28;20510;-79
2023/09/17 00:10:46;;;;;;;12.73;5.90;;;18.10;99.90;;;18.86;100.00;97948.94;5042663;28;20535;-79
2023/09/17 00:13:18;;;;;;;7.30;5.70;;;18.20;99.90;;;18.89;100.00;97952.97;5043683;28;20465;-78
2023/09/17 00:15:52;;;;;;;8.73;5.27;;;18.20;99.90;;;18.92;100.00;97947.97;5043460;28;20884;-78
2023/09/17 00:18:22;;;;;;;14.67;5.80;;;18.10;99.90;;;18.91;100.00;97929.69;5049898;28;20464;-79
2023/09/17 00:20:54;;;;;;;6.60;5.17;;;18.10;99.90;;;18.94;100.00;97922.06;5051289;28;20460;-79
2023/09/17 00:23:24;;;;;;;11.40;5.37;;;18.10;99.90;;;18.96;100.00;97921.78;5047057;28;20922;-78
2023/09/17 00:25:53;;;;;;;8.70;5.60;;;18.10;99.90;;;18.96;100.00;97921.78;5047900;28;20511;-79
2023/09/17 00:28:24;;;;;;;8.77;5.33;;;18.10;99.90;;;18.94;100.00;97910.66;5049903;28;20493;-80
2023/09/17 00:30:54;;;;;;;7.57;5.87;;;18.10;99.90;;;18.95;100.00;97915.69;5047588;28;20460;-78
2023/09/17 00:33:25;;;;;;;6.50;5.47;;;18.10;99.90;;;18.94;100.00;97894.75;5051595;28;20550;-78
2023/09/17 00:35:57;;;;;;;8.67;5.83;;;18.00;99.90;;;18.90;100.00;97896.28;5046562;28;20798;-78
2023/09/17 00:38:28;;;;;;;14.57;5.17;;;18.10;99.90;;;18.87;100.00;97894.91;5045134;28;20465;-78
2023/09/17 00:40:58;;;;;;;8.50;5.47;;;18.10;99.90;;;18.89;100.00;97897.31;5047042;28;20518;-78
2023/09/17 00:43:30;;;;;;;8.73;5.00;;;18.10;99.90;;;18.91;100.00;97892.59;5044016;28;20496;-78
2023/09/17 00:46:00;;;;;;;15.33;5.50;;;18.10;99.90;;;18.93;100.00;97885.19;5044728;28;20469;-78
2023/09/17 00:48:31;;;;;;;7.30;5.10;;;18.00;99.90;;;18.91;100.00;97879.34;5048006;28;20533;-78
2023/09/17 00:51:03;;;;;;;7.30;5.33;;;18.00;99.90;;;18.92;100.00;97888.88;5046215;28;21220;-78
2023/09/17 00:53:33;;;;;;;7.43;5.10;;;18.00;99.90;;;18.90;100.00;97880.38;5047188;28;20468;-78
2023/09/17 00:56:04;;;;;;;8.13;5.77;;;18.00;99.90;;;18.92;100.00;97878.25;5045403;28;20461;-78
2023/09/17 00:58:35;;;;;;;7.77;5.43;;;18.00;99.90;;;18.89;100.00;97884.06;5045483;28;20467;-78
2023/09/17 01:01:05;;;;;;;16.57;5.20;;;17.90;99.90;;;18.88;100.00;97877.19;5046572;28;20915;-78
2023/09/17 01:03:36;;;;;;;5.93;5.20;;;17.90;99.90;;;18.89;100.00;97876.09;5047091;28;21028;-78
2023/09/17 01:06:10;;;;;;;8.23;5.73;;;17.90;99.90;;;18.89;100.00;97878.75;5044537;28;20460;-79
2023/09/17 01:08:41;;;;;;;7.97;4.83;;;17.90;99.90;;;18.89;100.00;97868.16;5044620;28;20514;-78
2023/09/17 01:11:12;;;;;;;11.83;5.40;;;17.90;99.90;;;18.90;100.00;97875.06;5045759;28;20795;-78
2023/09/17 01:13:44;;;;;;;11.40;5.27;;;17.90;99.90;;;18.90;100.00;97870.56;5048037;28;20464;-78
2023/09/17 01:16:14;;;;;;;14.53;5.60;;;17.90;99.90;;;18.87;100.00;97875.56;5048538;28;20640;-79
2023/09/17 01:18:45;;;;;;;6.07;5.30;;;17.90;99.90;;;18.87;100.00;97878.22;5044378;28;20458;-78
2023/09/17 01:21:27;;;;;;;12.07;6.40;;;17.90;99.90;;;18.87;100.00;97880.84;5047262;28;20540;-78
2023/09/17 01:24:21;;;;;;;9.03;5.97;;;17.90;99.90;;;18.86;100.00;97879.25;5046191;28;20476;-79
2023/09/17 01:27:01;;;;;;;9.30;6.17;;;17.90;99.90;;;18.87;100.00;97876.38;5044644;28;21076;-78
2023/09/17 01:29:35;;;;;;;6.57;5.10;;;17.90;99.90;;;18.85;100.00;97882.94;5049101;28;20444;-78
2023/09/17 01:32:05;;;;;;;8.80;5.70;;;17.90;99.90;;;18.84;100.00;97886.66;5049905;28;21011;-79
2023/09/17 01:34:37;;;;;;;7.33;4.93;;;17.90;99.90;;;18.81;100.00;97879.19;5043862;28;20465;-79
2023/09/17 01:37:16;;;;;;;15.53;5.90;;;17.90;99.90;;;18.82;100.00;97876.28;5046761;28;20469;-79
2023/09/17 01:39:57;;;;;;;5.83;4.93;;;17.90;99.90;;;18.79;100.00;97874.13;5041580;28;21532;-78
2023/09/17 01:42:31;;;;;;;7.33;5.33;;;17.90;99.90;;;18.81;100.00;97887.13;5042653;28;20469;-78
2023/09/17 01:45:02;;;;;;;7.10;5.93;;;17.90;99.90;;;18.79;100.00;97889.22;5045216;28;20524;-78
2023/09/17 01:47:35;;;;;;;17.10;5.87;;;17.90;99.90;;;18.78;100.00;97893.72;5040986;28;20466;-78
2023/09/17 01:50:09;;;;;;;11.93;5.50;;;17.80;99.90;;;18.79;100.00;97889.22;5046819;28;20563;-78
2023/09/17 01:52:41;;;;;;;7.27;4.80;;;17.80;99.90;;;18.77;100.00;97888.66;5048677;28;20465;-78
2023/09/17 01:55:12;;;;;;;7.07;5.20;;;17.90;99.90;;;18.77;100.00;97893.97;5046216;28;20457;-78
2023/09/17 01:57:43;;;;;;;6.87;5.33;;;17.80;99.90;;;18.74;100.00;97889.16;5048535;28;20457;-78
2023/09/17 02:00:16;;;;;;;6.70;5.10;;;17.80;99.90;;;18.74;100.00;97883.84;5044269;28;20460;-78
2023/09/17 02:02:49;;;;;;;8.57;5.43;;;17.60;99.90;;;18.73;100.00;97883.06;5046476;28;20503;-78
2023/09/17 02:05:21;;;;;;;10.77;5.70;;;17.70;99.90;;;18.72;100.00;97880.63;5043812;28;20539;-80
2023/09/17 02:07:50;;;;;;;6.47;5.60;;;17.70;99.90;;;18.70;100.00;97882.72;5043939;28;20548;-79
2023/09/17 02:10:21;;;;;;;9.73;6.00;;;17.70;99.90;;;18.67;100.00;97878.72;5049607;28;20535;-78
2023/09/17 02:12:52;;;;;;;6.53;4.53;;;17.70;99.90;;;18.65;100.00;97880.81;5044627;28;20963;-78
2023/09/17 02:15:22;;;;;;;7.50;5.07;;;17.70;99.90;;;18.63;100.00;97874.97;5047078;28;20533;-78
2023/09/17 02:17:52;;;;;;;7.87;5.33;;;17.70;99.90;;;18.64;100.00;97876.53;5044634;28;20944;-78
2023/09/17 02:20:23;;;;;;;10.30;5.13;;;17.70;99.90;;;18.62;100.00;97873.34;5043664;28;21216;-78
2023/09/17 02:22:52;;;;;;;8.50;5.47;;;17.70;99.90;;;18.64;100.00;97873.88;5046227;28;20465;-78
2023/09/17 02:25:23;;;;;;;11.73;5.43;;;17.70;99.90;;;18.63;100.00;97868.84;5041355;28;20528;-78
2023/09/17 02:27:54;;;;;;;7.20;4.90;;;17.70;99.90;;;18.64;100.00;97870.47;5043849;28;20461;-78
2023/09/17 02:30:24;;;;;;;5.30;4.40;;;17.70;99.90;;;18.64;100.00;97865.16;5048392;28;20470;-78
2023/09/17 02:32:53;;;;;;;6.93;5.70;;;17.60;99.90;;;18.63;100.00;97874.16;5043949;28;20507;-78
2023/09/17 02:35:23;;;;;;;12.73;6.13;;;17.60;99.90;;;18.63;100.00;97871.50;5045868;28;20482;-78
2023/09/17 02:37:52;;;;;;;10.13;5.27;;;17.60;99.90;;;18.60;100.00;97865.63;5042159;28;20448;-78
2023/09/17 02:40:23;;;;;;;10.20;5.73;;;17.60;99.90;;;18.60;100.00;97857.69;5042944;28;20520;-78
2023/09/17 02:42:54;;;;;;;12.27;4.60;;;17.70;99.90;;;18.60;100.00;97862.97;5041133;28;20550;-78
2023/09/17 02:45:24;;;;;;;12.13;6.17;;;17.60;99.90;;;18.59;100.00;97857.94;5044935;28;20557;-79
2023/09/17 02:47:55;;;;;;;6.00;4.90;;;17.70;99.90;;;18.60;100.00;97855.03;5044010;28;20456;-78
2023/09/17 02:50:24;;;;;;;5.90;5.10;;;17.70;99.90;;;18.59;100.00;97857.94;5042507;28;20556;-78
2023/09/17 02:52:53;;;;;;;6.07;5.20;;;17.60;99.90;;;18.58;100.00;97862.44;5042081;28;20465;-78
2023/09/17 02:55:24;;;;;;;15.97;6.10;;;17.60;99.90;;;18.58;100.00;97859.78;5045578;28;20465;-78
2023/09/17 02:57:56;;;;;;;13.40;5.50;;;17.60;99.90;;;18.56;100.00;97864.53;5045093;28;20514;-78
2023/09/17 03:00:25;;;;;;;6.00;5.10;;;17.60;99.90;;;18.57;100.00;97862.66;5041771;28;20519;-77
2023/09/17 03:02:56;;;;;;;8.90;5.77;;;17.60;99.90;;;18.55;100.00;97857.63;5043312;28;20476;-78
2023/09/17 03:05:25;;;;;;;15.53;5.93;;;17.60;99.90;;;18.54;100.00;97861.31;5044694;28;20574;-78
2023/09/17 03:07:56;;;;;;;7.30;5.27;;;17.60;99.90;;;18.53;100.00;97854.41;5046202;28;20504;-78
2023/09/17 03:10:26;;;;;;;11.13;6.17;;;17.60;99.90;;;18.52;100.00;97866.06;5044004;28;20470;-78
2023/09/17 03:12:57;;;;;;;5.80;5.20;;;17.60;99.90;;;18.52;100.00;97863.41;5039378;28;20466;-79
2023/09/17 03:15:28;;;;;;;7.27;5.40;;;17.50;99.90;;;18.50;100.00;97870.78;5042261;28;20480;-78
2023/09/17 03:17:58;;;;;;;7.70;5.60;;;17.50;99.90;;;18.48;100.00;97867.53;5045212;28;20469;-78
2023/09/17 03:20:33;;;;;;;6.33;5.60;;;17.50;99.90;;;18.45;100.00;97873.31;5043239;28;20473;-79
2023/09/17 03:23:04;;;;;;;8.90;5.50;;;17.40;99.90;;;18.42;100.00;97859.75;5041447;28;20468;-79
2023/09/17 03:25:33;;;;;;;10.57;5.60;;;17.40;99.90;;;18.39;100.00;97866.34;5043082;28;20500;-78
2023/09/17 03:28:06;;;;;;;15.50;6.30;;;17.30;99.90;;;18.35;100.00;97867.06;5046476;28;20548;-78
2023/09/17 03:30:36;;;;;;;7.70;5.63;;;17.40;99.90;;;18.32;100.00;97873.66;5043161;28;20453;-78
2023/09/17 03:33:07;;;;;;;10.63;5.27;;;17.30;99.90;;;18.31;100.00;97865.94;5045435;28;20544;-78
2023/09/17 03:35:36;;;;;;;5.90;5.30;;;17.30;99.90;;;18.30;100.00;97867.78;5045296;28;20486;-79
2023/09/17 03:38:05;;;;;;;16.80;6.23;;;17.30;99.90;;;18.30;100.00;97866.97;5042358;28;20465;-78
2023/09/17 03:40:36;;;;;;;6.80;5.27;;;17.20;99.90;;;18.27;100.00;97868.25;5043807;28;20516;-78
2023/09/17 03:43:08;;;;;;;6.67;5.47;;;17.20;99.90;;;18.23;100.00;97868.97;5042725;28;20449;-78
2023/09/17 03:45:38;;;;;;;6.43;5.07;;;17.20;99.90;;;18.20;100.00;97867.63;5039247;28;20558;-79
2023/09/17 03:48:08;;;;;;;6.00;5.00;;;17.10;99.90;;;18.19;100.00;97867.88;5040162;28;20465;-78
2023/09/17 03:50:39;;;;;;;8.13;5.40;;;17.10;99.90;;;18.14;100.00;97873.88;5041987;28;20496;-78
2023/09/17 03:53:08;;;;;;;11.10;5.67;;;17.20;99.90;;;18.12;100.00;97872.53;5041267;28;20536;-79
2023/09/17 03:55:39;;;;;;;5.57;4.30;;;17.10;99.90;;;18.07;100.00;97866.09;5042728;28;20467;-78
2023/09/17 03:58:11;;;;;;;6.60;5.30;;;17.10;99.90;;;18.09;100.00;97871.13;5044197;28;20460;-78
2023/09/17 04:00:42;;;;;;;12.20;5.10;;;17.10;99.90;;;18.06;100.00;97863.66;5038234;28;20461;-78
2023/09/17 04:03:14;;;;;;;6.03;5.20;;;17.20;99.90;;;18.08;100.00;97862.38;5044979;28;20556;-78
2023/09/17 04:05:44;;;;;;;10.00;5.37;;;17.20;99.90;;;18.08;100.00;97862.38;5046366;28;20484;-78
2023/09/17 04:08:14;;;;;;;18.73;7.40;;;17.20;99.90;;;18.05;100.00;97868.16;5041781;28;20477;-79
2023/09/17 04:10:44;;;;;;;10.47;4.60;;;17.10;99.90;;;18.03;100.00;97869.44;5044418;28;20548;-80
2023/09/17 04:13:16;;;;;;;9.33;5.47;;;17.10;99.90;;;17.99;100.00;97865.66;5042264;28;20466;-78
2023/09/17 04:15:45;;;;;;;6.90;4.80;;;17.10;99.90;;;18.00;100.00;97865.44;5045373;28;20469;-78
2023/09/17 04:18:14;;;;;;;7.33;5.33;;;17.00;99.90;;;18.00;100.00;97862.00;5042322;28;20568;-79
2023/09/17 04:20:43;;;;;;;9.30;4.50;;;17.20;99.90;;;18.02;100.00;97859.91;5044673;28;20460;-79
2023/09/17 04:23:13;;;;;;;8.60;4.70;;;17.10;99.90;;;18.02;100.00;97858.06;5039714;28;20908;-78
2023/09/17 04:25:43;;;;;;;6.80;5.03;;;17.00;99.90;;;18.00;100.00;97867.28;5042715;28;20503;-81
2023/09/17 04:28:15;;;;;;;10.40;6.00;;;17.00;99.90;;;17.97;100.00;97860.63;5041283;28;20598;-79
2023/09/17 04:30:44;;;;;;;12.50;7.00;;;17.00;99.90;;;17.97;100.00;97865.91;5038508;28;20884;-80
2023/09/17 04:33:15;;;;;;;12.00;6.37;;;16.90;99.90;;;17.97;100.00;97865.91;5037448;28;20520;-78
2023/09/17 04:35:45;;;;;;;34.40;7.37;;;17.00;99.90;;;17.96;100.00;97856.38;5041392;28;20463;-79
2023/09/17 04:38:16;;;;;;;12.70;5.47;;;16.90;99.90;;;17.97;100.00;97860.63;5040233;28;21124;-80
2023/09/17 04:40:46;;;;;;;13.30;5.57;;;16.90;99.90;;;17.96;100.00;97868.78;5039377;28;20470;-80
2023/09/17 04:43:20;;;;;;;8.80;5.80;;;16.90;99.90;;;17.94;100.00;97865.59;5043446;28;20492;-76
2023/09/17 04:45:49;;;;;;;8.57;5.80;;;16.90;99.90;;;17.92;100.00;97871.13;5042852;28;20498;-78
2023/09/17 04:48:19;;;;;;;6.53;5.60;;;16.80;99.90;;;17.92;100.00;97872.94;5045866;28;20468;-78
2023/09/17 04:50:49;;;;;;;10.60;5.10;;;16.90;99.90;;;17.89;100.00;97870.78;5043938;28;20485;-78
2023/09/17 04:53:19;;;;;;;8.33;5.40;;;16.90;99.90;;;17.87;100.00;97870.22;5041093;28;20495;-79
2023/09/17 04:55:49;;;;;;;8.53;5.90;;;16.90;99.90;;;17.86;100.00;97874.72;5044966;28;20469;-78
2023/09/17 04:58:20;;;;;;;13.77;5.73;;;16.80;99.90;;;17.83;100.00;97879.69;5044223;28;20457;-79
2023/09/17 05:00:49;;;;;;;7.40;6.00;;;16.90;99.90;;;17.84;100.00;97876.78;5040688;28;20536;-78
2023/09/17 05:03:19;;;;;;;28.43;5.80;;;16.80;99.90;;;17.83;100.00;97882.31;5045066;28;20958;-78
2023/09/17 05:05:49;;;;;;;10.40;6.20;;;16.90;99.90;;;17.82;100.00;97878.88;5046087;28;20489;-78
2023/09/17 05:08:19;;;;;;;7.93;5.77;;;16.90;99.90;;;17.82;100.00;97881.50;5046532;28;20545;-78
2023/09/17 05:10:49;;;;;;;9.83;5.50;;;16.80;99.90;;;17.78;100.00;97882.22;5047950;28;20606;-78
2023/09/17 05:13:20;;;;;;;18.33;5.40;;;16.90;99.90;;;17.79;100.00;97889.13;5049681;28;20558;-79
2023/09/17 05:15:49;;;;;;;27.33;6.13;;;16.80;99.90;;;17.76;100.00;97892.25;5046124;28;20461;-78
2023/09/17 05:18:20;;;;;;;119.43;47.87;;;16.70;99.90;;;17.73;100.00;97893.53;5042246;28;20470;-78
2023/09/17 05:20:53;;;;;;;18.83;5.53;;;16.70;99.90;;;17.73;100.00;97892.72;5045968;28;20485;-78
2023/09/17 05:23:23;;;;;;;22.77;4.73;;;16.80;99.90;;;17.71;100.00;97892.94;5044310;28;20461;-79
2023/09/17 05:25:55;;;;;;;15.93;4.53;;;16.70;99.90;;;17.71;100.00;97897.44;5045025;28;20500;-79
2023/09/17 05:28:27;;;;;;;25.03;4.70;;;16.60;99.90;;;17.70;100.00;97901.91;5045770;28;20975;-78
2023/09/17 05:30:57;;;;;;;46.70;6.10;;;16.60;99.90;;;17.70;100.00;97911.72;5041035;28;20472;-79
2023/09/17 05:33:27;;;;;;;30.03;3.90;;;16.60;99.90;;;17.70;100.00;97901.13;5043025;28;20539;-79
2023/09/17 05:35:57;;;;;;;8.37;4.03;;;16.60;99.90;;;17.71;100.00;97913.28;5043835;28;20845;-79
2023/09/17 05:38:28;;;;;;;28.53;4.43;;;16.60;99.90;;;17.72;100.00;97912.25;5045262;28;20466;-79
2023/09/17 05:40:59;;;;;;;8.03;3.90;;;16.70;99.90;;;17.70;100.00;97923.06;5037907;28;20526;-79
2023/09/17 05:43:31;;;;;;;22.03;3.57;;;16.70;99.90;;;17.67;100.00;97922.75;5044724;28;20580;-79
2023/09/17 05:46:02;;;;;;;19.43;4.67;;;16.80;99.90;;;17.59;100.00;97922.09;5041260;28;20604;-79
2023/09/17 05:48:32;;;;;;;10.03;4.13;;;16.80;99.90;;;17.60;100.00;97918.41;5042167;28;20461;-79
2023/09/17 05:51:04;;;;;;;4.10;3.70;;;16.70;99.90;;;17.62;100.00;97914.72;5040647;28;20458;-79
2023/09/17 05:53:35;;;;;;;11.63;3.80;;;16.70;99.90;;;17.59;100.00;97927.38;5044818;28;20466;-79
2023/09/17 05:56:07;;;;;;;13.47;3.50;;;16.60;99.90;;;17.57;100.00;97929.44;5045823;28;20470;-80
2023/09/17 05:58:39;;;;;;;10.07;4.70;;;16.60;99.90;;;17.60;100.00;97923.69;5046172;28;21360;-79
2023/09/17 06:01:11;;;;;;;8.93;3.70;;;16.60;99.90;;;17.60;100.00;97923.69;5044396;28;20449;-79
2023/09/17 06:03:42;;;;;;;7.27;3.90;;;16.60;99.90;;;17.59;100.00;97927.38;5050651;28;20462;-79
2023/09/17 06:06:12;;;;;;;4.30;3.90;;;16.70;99.90;;;17.61;100.00;97932.44;5046887;28;20486;-79
2023/09/17 06:08:42;;;;;;;5.73;3.90;;;16.60;99.90;;;17.59;100.00;97924.75;5046360;28;20465;-79
2023/09/17 06:11:12;;;;;;;5.23;4.17;;;16.70;99.90;;;17.56;100.00;97927.81;5044449;28;21189;-80
2023/09/17 06:13:43;;;;;;;29.80;4.80;;;16.70;99.90;;;17.58;100.00;97925.78;5044094;28;20500;-79
2023/09/17 06:16:15;;;;;;;59.00;4.60;;;16.80;99.90;;;17.59;100.00;97922.09;5045758;28;20468;-81
2023/09/17 06:18:45;;;;;;;7.23;3.93;;;16.80;99.90;;;17.63;100.00;97927.72;5046302;28;20456;-80
2023/09/17 06:21:16;;;;;;;11.87;3.70;;;16.70;99.90;;;17.62;100.00;97926.09;5041068;28;20472;-80
2023/09/17 06:23:47;;;;;;;14.67;4.10;;;16.70;99.90;;;17.60;100.00;97928.16;5037801;28;20523;-79
2023/09/17 06:26:18;;;;;;;37.60;4.37;;;16.70;99.90;;;17.62;100.00;97927.94;5044981;28;20492;-79
2023/09/17 06:28:51;;;;;;;19.20;3.40;;;16.70;99.90;;;17.63;100.00;97934.84;5044678;28;20967;-83
2023/09/17 06:31:21;;;;;;;8.63;4.07;;;16.70;99.90;;;17.64;100.00;97929.31;5043661;28;20721;-80
2023/09/17 06:33:53;;;;;;;17.67;3.97;;;16.80;99.90;;;17.64;100.00;97939.06;5042811;28;20461;-78
2023/09/17 06:36:23;;;;;;;13.70;5.70;;;16.80;99.90;;;17.66;100.00;97939.66;5047922;28;20469;-78
2023/09/17 06:38:57;;;;;;;24.40;4.60;;;16.80;99.90;;;17.67;100.00;97938.63;5042564;28;21129;-79
2023/09/17 06:41:27;;;;;;;7.50;3.53;;;16.80;99.90;;;17.69;100.00;97936.53;5045328;28;20465;-79
2023/09/17 06:43:58;;;;;;;7.17;5.00;;;16.80;99.90;;;17.72;100.00;97938.72;5044564;28;20540;-79
2023/09/17 06:46:29;;;;;;;9.37;4.23;;;16.80;99.90;;;17.72;100.00;97930.78;5043658;28;20500;-79
2023/09/17 06:48:59;;;;;;;7.00;5.40;;;16.80;99.90;;;17.76;100.00;97939.84;5042165;28;20643;-79
2023/09/17 06:51:29;;;;;;;4.87;4.40;;;16.90;99.90;;;17.78;100.00;97940.41;5039042;28;21266;-78
2023/09/17 06:53:58;;;;;;;6.03;4.40;;;16.90;99.90;;;17.81;100.00;97940.75;5044943;28;20839;-79
2023/09/17 06:56:30;;;;;;;7.27;5.00;;;16.90;99.90;;;17.83;100.00;97929.94;5040771;28;20464;-79
2023/09/17 06:59:01;;;;;;;6.47;3.73;;;16.90;99.90;;;17.81;100.00;97937.28;5043349;28;20461;-79
2023/09/17 07:01:32;;;;;;;5.40;4.13;;;16.90;99.90;;;17.83;100.00;97937.88;5038780;28;20481;-79
2023/09/17 07:04:03;;;;;;;4.80;4.30;;;17.00;99.90;;;17.83;100.00;97932.59;5043867;28;20516;-79
2023/09/17 07:06:32;;;;;;;4.57;3.53;;;17.00;99.90;;;17.86;100.00;97938.22;5038546;28;20527;-79
2023/09/17 07:09:01;;;;;;;8.33;3.83;;;17.00;99.90;;;17.87;100.00;97934.53;5043632;28;20639;-79
2023/09/17 07:11:31;;;;;;;4.20;3.80;;;17.00;99.90;;;17.87;100.00;97933.72;5037538;28;20549;-78
2023/09/17 07:14:09;;;;;;;6.17;3.83;;;17.00;99.90;;;17.88;100.00;97935.31;5038916;28;20541;-78
2023/09/17 07:16:40;;;;;;;5.20;4.03;;;17.00;99.90;;;17.91;100.00;97929.56;5040267;28;20467;-78
2023/09/17 07:19:10;;;;;;;4.57;4.07;;;17.00;99.90;;;17.95;100.00;97931.50;5042837;28;20500;-79
2023/09/17 07:21:40;;;;;;;8.27;5.50;;;17.00;99.90;;;17.99;100.00;97929.19;5042160;28;20567;-78
2023/09/17 07:24:12;;;;;;;7.20;4.97;;;17.10;99.90;;;18.01;100.00;97933.19;5041631;28;20465;-79
2023/09/17 07:26:43;;;;;;;7.10;4.90;;;17.10;99.90;;;18.05;100.00;97925.56;5040781;28;20466;-79
2023/09/17 07:29:15;;;;;;;14.63;4.30;;;17.10;99.90;;;18.08;100.00;97925.13;5038574;28;20568;-79
2023/09/17 07:31:47;;;;;;;4.83;4.20;;;17.10;99.90;;;18.11;100.00;97935.22;5039525;28;20461;-81
2023/09/17 07:34:18;;;;;;;4.57;3.93;;;17.10;99.90;;;18.16;100.00;97930.00;5041482;28;20483;-78
2023/09/17 07:36:47;;;;;;;6.00;3.70;;;17.20;99.90;;;18.19;100.00;97934.84;5044405;28;20458;-79
2023/09/17 07:39:19;;;;;;;5.00;3.97;;;17.20;99.90;;;18.24;100.00;97931.47;5040423;28;20978;-78
2023/09/17 07:41:49;;;;;;;6.37;4.37;;;17.30;99.90;;;18.27;100.00;97934.44;5043278;28;21021;-78
2023/09/17 07:44:20;;;;;;;6.93;4.43;;;17.30;99.90;;;18.29;100.00;97932.34;5045969;28;20472;-78
2023/09/17 07:46:51;;;;;;;4.83;3.77;;;17.40;99.90;;;18.33;100.00;97936.13;5043920;28;20453;-78
2023/09/17 07:49:26;;;;;;;5.77;4.93;;;17.40;99.90;;;18.37;100.00;97945.22;5040048;28;20584;-78
2023/09/17 07:51:57;;;;;;;4.90;3.93;;;17.50;99.90;;;18.42;100.00;97944.50;5041980;28;20535;-78
2023/09/17 07:54:27;;;;;;;11.40;4.00;;;17.50;99.90;;;18.44;100.00;97950.34;5039621;28;20569;-78
2023/09/17 07:56:56;;;;;;;7.57;4.20;;;17.60;99.90;;;18.47;100.00;97945.38;5039622;28;20543;-77
2023/09/17 07:59:27;;;;;;;24.07;14.30;;;17.60;99.90;;;18.51;100.00;97945.75;5043418;28;20477;-77
2023/09/17 08:01:58;;;;;;;14.40;7.97;;;17.60;99.90;;;18.54;100.00;97943.41;5045254;28;20461;-79
2023/09/17 08:04:27;;;;;;;7.37;5.40;;;17.70;99.90;;;18.58;100.00;97941.91;5041392;28;20470;-77
2023/09/17 08:06:59;;;;;;;35.53;19.87;;;17.70;99.90;;;18.63;100.00;97948.31;5041622;28;20457;-78
2023/09/17 08:09:30;;;;;;;8.93;5.30;;;17.80;99.90;;;18.66;100.00;97953.94;5043969;28;20544;-78
2023/09/17 08:12:01;;;;;;;7.77;3.93;;;17.90;99.90;;;18.73;100.00;97953.78;5044120;28;21020;-78
2023/09/17 08:14:35;;;;;;;5.27;3.77;;;18.00;99.90;;;18.78;100.00;97948.56;5043649;28;20464;-78
2023/09/17 08:17:06;;;;;;;5.80;5.10;;;18.00;99.90;;;18.83;100.00;97938.03;5040312;28;20557;-77
2023/09/17 08:19:37;;;;;;;11.23;4.70;;;18.10;99.90;;;18.89;100.00;97945.00;5039381;28;20882;-78
2023/09/17 08:22:06;;;;;;;5.20;3.60;;;18.20;99.90;;;18.94;100.00;97937.16;5037368;28;20485;-77
2023/09/17 08:24:36;;;;;;;8.50;3.97;;;18.20;99.90;;;18.98;100.00;97940.91;5039209;28;21008;-77
2023/09/17 08:27:06;;;;;;;5.17;3.43;;;18.30;99.90;;;19.03;100.00;97943.63;5042167;28;20557;-78
2023/09/17 08:29:37;;;;;;;5.47;4.00;;;18.30;99.90;;;19.08;100.00;97946.38;5039254;28;20857;-77
2023/09/17 08:32:08;;;;;;;31.17;18.87;;;18.40;99.90;;;19.14;100.00;97949.88;5037119;28;20535;-79
2023/09/17 08:34:38;;;;;;;7.63;5.00;;;18.40;99.90;;;19.19;100.00;97942.00;5044412;28;20457;-77
2023/09/17 08:37:09;;;;;;;9.60;4.03;;;18.50;99.90;;;19.23;100.00;97943.91;5043959;28;20585;-76
2023/09/17 08:39:38;;;;;;;8.40;4.10;;;18.50;99.90;;;19.27;100.00;97934.41;5046142;28;20830;-75
2023/09/17 08:42:12;;;;;;;6.90;4.20;;;18.60;99.90;;;19.34;100.00;97947.50;5043764;28;20463;-79
2023/09/17 08:44:45;;;;;;;11.03;3.70;;;18.60;99.90;;;19.36;100.00;97942.78;5046103;28;20966;-78
2023/09/17 08:47:14;;;;;;;5.67;4.07;;;18.70;99.90;;;19.41;100.00;97941.00;5045784;28;20481;-78
2023/09/17 08:49:44;;;;;;;7.87;3.50;;;18.70;99.90;;;19.47;100.00;97940.00;5045453;28;20504;-79
2023/09/17 08:52:18;;;;;;;4.60;3.10;;;18.80;99.90;;;19.51;100.00;97941.13;5043371;28;20564;-78
2023/09/17 08:54:50;;;;;;;11.57;4.10;;;18.80;99.90;;;19.56;100.00;97922.63;5045674;28;20474;-78
2023/09/17 08:57:24;;;;;;;5.23;3.50;;;18.90;99.90;;;19.62;100.00;97925.34;5044544;28;20469;-77
2023/09/17 09:00:08;;;;;;;6.03;3.53;;;19.00;99.90;;;19.67;100.00;97930.72;5045672;28;20466;-78
2023/09/17 09:02:45;;;;;;;10.97;2.93;;;19.00;99.90;;;19.71;100.00;97934.47;5046329;28;20460;-79
2023/09/17 09:05:17;;;;;;;4.77;3.30;;;19.00;99.90;;;19.75;100.00;97938.25;5047948;28;20540;-78
2023/09/17 09:07:50;;;;;;;5.63;3.30;;;19.10;99.90;;;19.78;100.00;97935.91;5045111;28;20511;-78
2023/09/17 09:10:22;;;;;;;14.87;6.30;;;19.20;99.90;;;19.83;100.00;97927.16;5049194;28;20526;-78
2023/09/17 09:12:51;;;;;;;16.70;11.10;;;19.20;99.90;;;19.86;100.00;97927.47;5048422;28;20572;-78
2023/09/17 09:15:23;;;;;;;5.70;4.10;;;19.20;99.90;;;19.90;100.00;97928.59;5048896;28;21050;-78
2023/09/17 09:17:55;;;;;;;6.30;3.20;;;19.30;99.90;;;19.96;100.00;97940.03;5044823;28;20569;-78
2023/09/17 09:20:26;;;;;;;10.83;3.37;;;19.30;99.90;;;20.02;100.00;97936.41;5048553;28;20541;-78
2023/09/17 09:22:56;;;;;;;8.50;3.13;;;19.30;99.90;;;20.07;100.00;97933.78;5047889;28;20459;-78
2023/09/17 09:25:29;;;;;;;2.80;2.50;;;19.40;99.90;;;20.13;100.00;97947.94;5045615;28;20457;-78
2023/09/17 09:28:00;;;;;;;3.83;2.83;;;19.40;99.90;;;20.20;100.00;97941.34;5048825;28;20480;-78
2023/09/17 09:30:31;;;;;;;3.90;3.17;;;19.50;99.90;;;20.25;100.00;97944.06;5048078;28;20552;-78
2023/09/17 09:33:02;;;;;;;5.60;3.10;;;19.60;99.90;;;20.30;100.00;97948.69;5046851;28;20462;-78
2023/09/17 09:35:31;;;;;;;9.87;3.40;;;19.60;99.90;;;20.36;100.00;97948.47;5046437;28;20564;-78
2023/09/17 09:38:02;;;;;;;4.37;2.97;;;19.70;99.90;;;20.42;100.00;97942.13;5048425;28;20462;-78
2023/09/17 09:40:34;;;;;;;10.17;3.10;;;19.80;99.90;;;20.47;100.00;97950.16;5045058;28;20465;-78
2023/09/17 09:43:04;;;;;;;3.50;2.40;;;19.80;99.90;;;20.51;100.00;97951.25;5045642;28;20473;-78
2023/09/17 09:45:38;;;;;;;4.63;2.90;;;19.90;99.90;;;20.55;100.00;97949.69;5048165;28;20818;-78
2023/09/17 09:48:14;;;;;;;9.43;3.27;;;19.90;99.90;;;20.58;100.00;97951.06;5047552;28;20534;-78
2023/09/17 09:50:47;;;;;;;4.37;2.70;;;20.00;99.90;;;20.63;100.00;97951.09;5046802;28;20479;-78
2023/09/17 09:53:17;;;;;;;6.53;3.67;;;20.00;99.90;;;20.70;100.00;97941.03;5044026;28;20468;-78
2023/09/17 09:55:46;;;;;;;7.27;3.10;;;20.10;99.90;;;20.72;100.00;97941.56;5044572;28;20461;-80
2023/09/17 09:58:17;;;;;;;7.00;3.00;;;20.20;99.90;;;20.76;100.00;97940.00;5046225;28;20878;-79
2023/09/17 10:00:48;;;;;;;12.10;3.13;;;20.20;99.90;;;20.82;100.00;97935.56;5048145;28;20495;-78
2023/09/17 10:03:20;;;;;;;6.60;3.27;;;20.20;99.90;;;20.85;100.00;97929.72;5046112;28;20965;-79
2023/09/17 10:05:50;;;;;;;4.30;2.77;;;20.30;99.90;;;20.89;100.00;97925.50;5044896;28;20461;-78
2023/09/17 10:08:19;;;;;;;4.30;2.80;;;20.30;99.90;;;20.91;100.00;97924.19;5044987;28;20519;-78
2023/09/17 10:10:49;;;;;;;10.53;3.30;;;20.40;99.90;;;20.98;100.00;97923.94;5044440;28;20528;-78
2023/09/17 10:13:18;;;;;;;4.30;2.97;;;20.40;99.90;;;21.01;100.00;97926.09;5044833;28;20540;-78
2023/09/17 10:15:49;;;;;;;3.83;2.90;;;20.40;99.90;;;21.04;100.00;97920.25;5045425;28;20465;-78
2023/09/17 10:18:21;;;;;;;7.90;3.07;;;20.50;99.90;;;21.08;100.00;97916.03;5044341;28;20500;-78
2023/09/17 10:20:55;;;;;;;6.07;2.30;;;20.50;99.90;;;21.14;100.00;97916.91;5047483;28;20488;-79
2023/09/17 10:23:26;;;;;;;4.17;2.97;;;20.50;99.90;;;21.18;100.00;97908.13;5046062;28;20845;-79
2023/09/17 10:25:59;;;;;;;5.40;3.13;;;20.60;99.90;;;21.24;100.00;97907.09;5042530;28;20556;-78